| time (UTC) | temp F | wind direction | speed MPH | gust MPH | rain 1hr in | rain 24hr in | rain mn in | humidity % | barometer mb |
| 20260510141517 | 67 | 287 | 3.0 | 13.0 | 0.00 | 0.00 | 0.00 | 59 | 1016.7 |
| 20260510140018 | 66 | 302 | 4.0 | 9.0 | 0.00 | 0.00 | 0.00 | 59 | 1016.7 |
| 20260510134522 | 65 | 308 | 4.0 | 10.0 | 0.00 | 0.00 | 0.00 | 58 | 1016.7 |
| 20260510133026 | 63 | 238 | 2.0 | 5.0 | 0.00 | 0.00 | 0.00 | 68 | 1016.7 |
| 20260510131508 | 58 | 56 | 1.0 | 3.0 | 0.00 | 0.00 | 0.00 | 78 | 1016.8 |
| 20260510130016 | 55 | 113 | 0.0 | 0.0 | 0.00 | 0.00 | 0.00 | 82 | 1016.8 |
| 20260510124520 | 53 | 190 | 0.0 | 1.0 | 0.00 | 0.00 | 0.00 | 86 | 1017.0 |
| 20260510123020 | 51 | 92 | 0.0 | 0.0 | 0.00 | 0.00 | 0.00 | 91 | 1017.0 |
| 20260510121525 | 47 | 92 | 0.0 | 0.0 | 0.00 | 0.00 | 0.00 | 95 | 1016.8 |
| 20260510120011 | 44 | 91 | 0.0 | 0.0 | 0.00 | 0.00 | 0.00 | 95 | 1016.7 |
| 20260510114519 | 42 | 91 | 0.0 | 0.0 | 0.00 | 0.00 | 0.00 | 96 | 1016.6 |
| 20260510113018 | 39 | 91 | 0.0 | 0.0 | 0.00 | 0.00 | 0.00 | 96 | 1016.6 |
| 20260510111521 | 37 | 91 | 0.0 | 0.0 | 0.00 | 0.00 | 0.00 | 96 | 1016.5 |
| 20260510110030 | 36 | 91 | 0.0 | 0.0 | 0.00 | 0.00 | 0.00 | 96 | 1016.5 |
| 20260510104513 | 35 | 90 | 0.0 | 0.0 | 0.00 | 0.00 | 0.00 | 96 | 1016.2 |
| 20260510103017 | 35 | 90 | 0.0 | 0.0 | 0.00 | 0.00 | 0.00 | 95 | 1016.0 |
| 20260510101523 | 35 | 90 | 0.0 | 0.0 | 0.00 | 0.00 | 0.00 | 95 | 1015.5 |
| 20260510100026 | 36 | 90 | 0.0 | 0.0 | 0.00 | 0.00 | 0.00 | 95 | 1015.4 |
| 20260510094529 | 36 | 90 | 0.0 | 0.0 | 0.00 | 0.00 | 0.00 | 95 | 1015.3 |
| 20260510093017 | 36 | 91 | 0.0 | 0.0 | 0.00 | 0.00 | 0.00 | 95 | 1015.1 |
| 20260510091505 | 36 | 91 | 0.0 | 0.0 | 0.00 | 0.00 | 0.00 | 95 | 1015.0 |
| 20260510090005 | 36 | 90 | 0.0 | 0.0 | 0.00 | 0.00 | 0.00 | 95 | 1014.8 |
| 20260510084504 | 36 | 90 | 0.0 | 0.0 | 0.00 | 0.00 | 0.00 | 95 | 1014.8 |
| 20260510083007 | 36 | 90 | 0.0 | 0.0 | 0.00 | 0.00 | 0.00 | 95 | 1014.8 |
| 20260510081523 | 36 | 90 | 0.0 | 0.0 | 0.00 | 0.00 | 0.00 | 94 | 1014.7 |
| 20260510080003 | 37 | 90 | 0.0 | 0.0 | 0.00 | 0.00 | 0.00 | 95 | 1014.9 |
| 20260510074505 | 37 | 90 | 0.0 | 0.0 | 0.00 | 0.00 | 0.00 | 94 | 1014.8 |
| 20260510073006 | 37 | 90 | 0.0 | 0.0 | 0.00 | 0.00 | 0.00 | 95 | 1014.8 |
| 20260510071518 | 37 | 90 | 0.0 | 0.0 | 0.00 | 0.00 | 0.00 | 94 | 1014.7 |
| 20260510070015 | 38 | 91 | 0.0 | 0.0 | 0.00 | 0.00 | 0.00 | 94 | 1014.5 |
| 20260510064520 | 38 | 91 | 0.0 | 0.0 | 0.00 | 0.00 | 0.00 | 93 | 1014.4 |
| 20260510063005 | 39 | 90 | 0.0 | 0.0 | 0.00 | 0.00 | 0.00 | 95 | 1014.3 |
| 20260510061507 | 38 | 91 | 0.0 | 1.0 | 0.00 | 0.00 | 0.00 | 94 | 1014.3 |
| 20260510060012 | 39 | 90 | 0.0 | 0.0 | 0.00 | 0.00 | 0.00 | 93 | 1014.4 |
| 20260510054520 | 39 | 254 | 0.0 | 0.0 | 0.00 | 0.00 | 0.00 | 93 | 1014.5 |
| 20260510053023 | 39 | 254 | 0.0 | 0.0 | 0.00 | 0.00 | 0.00 | 93 | 1014.3 |
| 20260510051506 | 40 | 255 | 0.0 | 0.0 | 0.00 | 0.00 | 0.00 | 92 | 1014.5 |
| 20260510050009 | 40 | 254 | 0.0 | 0.0 | 0.00 | 0.00 | 0.00 | 93 | 1014.5 |
| 20260510044518 | 40 | 254 | 0.0 | 0.0 | 0.00 | 0.00 | 0.00 | 93 | 1014.5 |
| 20260510043022 | 41 | 255 | 0.0 | 0.0 | 0.00 | 0.00 | 0.00 | 94 | 1014.5 |
| 20260510041524 | 41 | 253 | 0.0 | 0.0 | 0.00 | 0.00 | 0.00 | 91 | 1014.5 |
| 20260510040006 | 42 | 253 | 0.0 | 0.0 | 0.00 | 0.00 | 0.00 | 93 | 1014.5 |
| 20260510034512 | 43 | 253 | 0.0 | 0.0 | 0.00 | 0.00 | 0.00 | 91 | 1014.5 |
| 20260510033016 | 43 | 254 | 0.0 | 0.0 | 0.00 | 0.00 | 0.00 | 91 | 1014.3 |
| 20260510031536 | 44 | 254 | 0.0 | 0.0 | 0.00 | 0.00 | 0.00 | 91 | 1014.3 |
| 20260510030025 | 44 | 253 | 0.0 | 0.0 | 0.00 | 0.00 | 0.00 | 89 | 1014.3 |
| 20260510024506 | 45 | 254 | 0.0 | 0.0 | 0.00 | 0.00 | 0.00 | 89 | 1014.2 |
| 20260510023010 | 46 | 253 | 0.0 | 0.0 | 0.00 | 0.00 | 0.00 | 89 | 1014.1 |
| 20260510021516 | 46 | 254 | 0.0 | 0.0 | 0.00 | 0.00 | 0.00 | 87 | 1013.9 |
| 20260510020022 | 47 | 253 | 0.0 | 0.0 | 0.00 | 0.00 | 0.00 | 86 | 1013.7 |
| 20260510014525 | 48 | 254 | 0.0 | 0.0 | 0.00 | 0.00 | 0.00 | 86 | 1013.2 |
| 20260510013010 | 49 | 253 | 0.0 | 0.0 | 0.00 | 0.00 | 0.00 | 83 | 1013.1 |
| 20260510011513 | 50 | 267 | 0.0 | 1.0 | 0.00 | 0.00 | 0.00 | 81 | 1012.8 |
| 20260510010019 | 51 | 267 | 0.0 | 0.0 | 0.00 | 0.00 | 0.00 | 77 | 1012.5 |
| 20260510004524 | 53 | 267 | 0.0 | 1.0 | 0.00 | 0.00 | 0.00 | 75 | 1012.4 |
| 20260510003052 | 55 | 267 | 0.0 | 0.0 | 0.00 | 0.00 | 0.00 | 71 | 1012.3 |
| 20260510001515 | 57 | 267 | 0.0 | 0.0 | 0.00 | 0.00 | 0.00 | 65 | 1011.9 |
| 20260510000015 | 62 | 286 | 1.0 | 1.0 | 0.00 | 0.00 | 0.00 | 57 | 1011.7 |
| 20260509234527 | 63 | 295 | 1.0 | 4.0 | 0.00 | 0.00 | 0.00 | 53 | 1011.7 |
| 20260509233025 | 65 | 266 | 3.0 | 7.0 | 0.00 | 0.00 | 0.00 | 50 | 1011.5 |
| 20260509231532 | 65 | 303 | 5.0 | 9.0 | 0.00 | 0.00 | 0.00 | 49 | 1011.4 |
| 20260509230015 | 65 | 283 | 2.0 | 8.0 | 0.00 | 0.00 | 0.00 | 48 | 1011.3 |
| 20260509224518 | 66 | 300 | 2.0 | 6.0 | 0.00 | 0.00 | 0.00 | 48 | 1011.5 |
| 20260509223024 | 65 | 245 | 4.0 | 8.0 | 0.00 | 0.00 | 0.00 | 50 | 1011.8 |
| 20260509221506 | 65 | 222 | 5.0 | 13.0 | 0.00 | 0.00 | 0.00 | 48 | 1011.8 |
| 20260509220011 | 64 | 289 | 3.0 | 11.0 | 0.00 | 0.00 | 0.00 | 48 | 1011.7 |
| 20260509214518 | 65 | 266 | 5.0 | 9.0 | 0.00 | 0.00 | 0.00 | 48 | 1011.7 |
| 20260509213019 | 65 | 249 | 3.0 | 12.0 | 0.00 | 0.00 | 0.00 | 48 | 1011.6 |
| 20260509211522 | 65 | 304 | 4.0 | 12.0 | 0.00 | 0.00 | 0.00 | 44 | 1011.5 |
| 20260509210013 | 66 | 252 | 6.0 | 10.0 | 0.00 | 0.00 | 0.00 | 45 | 1011.3 |
| 20260509204512 | 66 | 250 | 5.0 | 14.0 | 0.00 | 0.00 | 0.00 | 45 | 1011.1 |
| 20260509203021 | 66 | 219 | 4.0 | 11.0 | 0.00 | 0.00 | 0.00 | 42 | 1011.0 |
| 20260509201521 | 65 | 303 | 6.0 | 16.0 | 0.00 | 0.00 | 0.00 | 42 | 1010.9 |
| 20260509200026 | 65 | 263 | 6.0 | 11.0 | 0.00 | 0.00 | 0.00 | 43 | 1010.8 |
| 20260509194512 | 68 | 265 | 6.0 | 12.0 | 0.00 | 0.00 | 0.00 | 39 | 1010.7 |
| 20260509193014 | 69 | 279 | 4.0 | 10.0 | 0.00 | 0.00 | 0.00 | 43 | 1010.8 |
| 20260509191518 | 67 | 299 | 3.0 | 15.0 | 0.00 | 0.00 | 0.00 | 46 | 1010.7 |
| 20260509190022 | 67 | 243 | 7.0 | 14.0 | 0.00 | 0.00 | 0.00 | 46 | 1010.8 |
| 20260509184528 | 65 | 255 | 8.0 | 13.0 | 0.00 | 0.00 | 0.00 | 48 | 1010.7 |
| 20260509183020 | 66 | 238 | 5.0 | 13.0 | 0.00 | 0.00 | 0.00 | 49 | 1010.9 |
| 20260509181521 | 65 | 304 | 8.0 | 14.0 | 0.00 | 0.00 | 0.00 | 48 | 1010.8 |
| 20260509180022 | 65 | 274 | 4.0 | 14.0 | 0.00 | 0.00 | 0.00 | 49 | 1010.9 |
| 20260509174526 | 65 | 272 | 6.0 | 18.0 | 0.00 | 0.00 | 0.00 | 50 | 1010.9 |
| 20260509173027 | 64 | 255 | 4.0 | 12.0 | 0.00 | 0.00 | 0.00 | 52 | 1010.9 |
| 20260509171513 | 64 | 273 | 5.0 | 10.0 | 0.00 | 0.00 | 0.00 | 53 | 1011.2 |
| 20260509170021 | 63 | 260 | 8.0 | 16.0 | 0.00 | 0.00 | 0.00 | 55 | 1011.5 |
| 20260509164523 | 63 | 293 | 5.0 | 15.0 | 0.00 | 0.00 | 0.00 | 55 | 1011.5 |
| 20260509163031 | 63 | 230 | 6.0 | 13.0 | 0.00 | 0.00 | 0.00 | 54 | 1011.5 |
| 20260509161529 | 62 | 303 | 7.0 | 11.0 | 0.00 | 0.00 | 0.00 | 54 | 1011.5 |
| 20260509160014 | 61 | 249 | 6.0 | 15.0 | 0.00 | 0.00 | 0.00 | 56 | 1011.3 |
| 20260509154518 | 61 | 252 | 5.0 | 10.0 | 0.00 | 0.00 | 0.00 | 58 | 1011.3 |
| 20260509153026 | 61 | 255 | 6.0 | 15.0 | 0.00 | 0.00 | 0.00 | 54 | 1011.4 |
| 20260509151528 | 61 | 261 | 4.0 | 11.0 | 0.00 | 0.00 | 0.00 | 55 | 1011.4 |
| 20260509150026 | 61 | 271 | 6.0 | 14.0 | 0.00 | 0.00 | 0.00 | 55 | 1011.4 |
| 20260509144528 | 61 | 264 | 6.0 | 12.0 | 0.00 | 0.00 | 0.00 | 59 | 1011.4 |
| 20260509143020 | 61 | 290 | 4.0 | 10.0 | 0.00 | 0.00 | 0.00 | 57 | 1011.3 |